createdAt,value
2018-04-24T06:23:43.488Z,6.60
2018-04-24T06:24:44.119Z,7.60
2018-04-24T06:26:45.007Z,7.60
2018-04-24T06:27:45.583Z,7.20
2018-04-24T06:28:46.181Z,7.40
2018-04-24T06:29:46.843Z,7.10
2018-04-24T06:30:47.419Z,7.40
2018-04-24T06:31:48.010Z,7.00
2018-04-24T06:32:48.641Z,7.40
2018-04-24T06:33:49.366Z,6.90
2018-04-24T06:34:49.984Z,6.60
2018-04-24T06:35:50.627Z,7.00
2018-04-24T06:36:51.232Z,7.10
2018-04-24T06:37:51.798Z,6.50
2018-04-24T06:38:52.375Z,6.50
2018-04-24T06:42:57.951Z,6.50
2018-04-24T06:43:58.580Z,7.40
2018-04-24T06:44:59.183Z,6.90
2018-04-24T06:45:59.821Z,6.80
2018-04-24T06:47:00.494Z,7.00
2018-04-24T06:48:01.520Z,7.50
2018-04-24T06:50:15.327Z,5.70
2018-04-24T06:50:33.547Z,6.90
2018-04-24T07:29:29.428Z,4.30
2018-04-24T07:30:54.768Z,4.90
2018-04-24T07:37:04.279Z,3.50
2018-04-24T07:38:04.858Z,5.00
2018-04-24T07:39:05.521Z,4.90
2018-04-24T07:42:27.501Z,4.50
2018-04-24T07:43:28.756Z,4.50
2018-04-24T07:46:04.069Z,3.20
2018-04-24T07:47:04.662Z,4.60
2018-04-24T07:49:29.617Z,4.40
2018-04-24T07:51:40.651Z,3.40
2018-04-24T07:53:01.565Z,4.50
2018-04-24T07:54:16.092Z,4.30
2018-04-24T07:55:16.688Z,4.50
2018-04-24T07:56:17.269Z,4.50
2018-04-24T07:58:42.732Z,5.10
2018-04-24T08:00:04.252Z,3.60
2018-04-24T08:01:04.846Z,4.50
2018-04-24T08:02:05.422Z,4.80
2018-04-24T08:04:54.662Z,4.40
2018-04-24T08:06:44.250Z,3.30
2018-04-24T08:08:10.121Z,4.40
2018-04-24T08:09:20.317Z,4.40
2018-04-24T08:10:22.961Z,4.30
2018-04-24T08:11:15.729Z,5.00
2018-04-24T08:12:23.670Z,3.50
2018-04-24T08:13:24.275Z,5.10
2018-04-24T08:14:53.056Z,4.70
2018-04-24T08:15:49.758Z,3.80
2018-04-24T08:16:55.829Z,3.60
2018-04-24T08:17:49.212Z,3.80
2018-04-24T08:18:41.611Z,4.30
2018-04-24T08:19:25.287Z,4.20
2018-04-24T08:20:13.392Z,3.80
2018-04-24T08:22:08.828Z,4.30
2018-04-24T08:23:04.914Z,4.20
2018-04-24T08:24:54.904Z,4.40
2018-04-24T08:25:51.413Z,4.70
2018-04-24T08:26:46.825Z,3.40
2018-04-24T08:27:27.796Z,3.50
2018-04-24T08:28:11.737Z,3.70
2018-04-24T08:28:51.342Z,3.90
2018-04-24T08:29:14.301Z,3.50
2018-04-24T08:29:47.401Z,3.50
2018-04-24T08:30:39.286Z,2.90
2018-04-24T08:31:35.536Z,2.50
2018-04-24T08:32:24.429Z,4.00
2018-04-24T08:33:08.227Z,5.10
2018-04-24T08:33:42.858Z,4.70
2018-04-24T08:34:28.285Z,4.30
2018-04-24T08:44:22.361Z,4.40
2018-04-24T08:44:59.478Z,3.80
2018-04-24T08:46:00.109Z,4.30
2018-04-24T08:47:00.685Z,4.20
2018-04-24T08:47:59.642Z,3.30
2018-04-24T08:48:55.256Z,2.80
2018-04-24T08:49:27.763Z,3.30
2018-04-24T08:50:12.980Z,0.00
2018-04-24T08:50:44.346Z,4.30
2018-04-24T08:51:13.310Z,3.70
2018-04-24T08:51:51.642Z,3.80
2018-04-24T08:52:43.058Z,3.10
2018-04-24T08:53:18.033Z,3.70
2018-04-24T08:53:51.052Z,3.90
2018-04-24T08:54:14.305Z,3.00
2018-04-24T08:58:31.896Z,4.80
2018-04-24T08:58:54.896Z,3.20
2018-04-24T08:59:16.535Z,3.30
2018-04-24T08:59:45.098Z,3.30
2018-04-24T09:00:12.753Z,4.10
2018-04-24T09:00:35.560Z,3.30
2018-04-24T09:01:41.051Z,3.80
2018-04-24T09:02:50.878Z,3.20
2018-04-24T09:03:51.499Z,4.40
2018-04-24T09:05:52.383Z,4.40
2018-04-24T09:06:59.305Z,0.00
2018-04-24T09:07:50.674Z,4.50
2018-04-24T09:09:16.252Z,0.00
2018-04-24T09:10:15.991Z,4.40
2018-04-24T09:12:16.184Z,3.90
2018-04-24T09:13:02.326Z,3.30
2018-04-24T09:13:34.742Z,4.10
2018-04-24T09:13:51.788Z,3.30
2018-04-24T09:30:37.589Z,3.60
2018-04-24T09:31:38.173Z,4.50
2018-04-24T09:32:38.734Z,4.20
2018-04-24T09:33:39.433Z,3.70
2018-04-24T09:34:02.634Z,3.70
2018-04-24T09:34:17.226Z,2.90
2018-04-24T09:35:17.838Z,4.10
2018-04-24T09:35:52.878Z,3.80
2018-04-24T09:39:44.308Z,4.60
2018-04-24T09:42:59.389Z,3.00
2018-04-24T09:44:00.080Z,4.10
2018-04-24T09:45:00.626Z,3.90
2018-04-24T09:46:01.321Z,3.70
2018-04-24T09:47:33.866Z,2.30
2018-04-24T09:48:51.941Z,3.10
2018-04-24T09:49:47.897Z,4.90
2018-04-24T09:50:27.691Z,2.90
2018-04-24T09:51:03.073Z,3.10
2018-04-24T09:51:26.695Z,3.30
2018-04-24T09:52:00.291Z,3.50
2018-04-24T09:52:24.149Z,3.10
2018-04-24T09:59:17.011Z,3.10
2018-04-24T10:17:56.132Z,3.20
2018-04-24T10:21:19.352Z,3.70
2018-04-24T10:21:38.786Z,2.90
2018-04-24T10:22:10.363Z,3.20
2018-04-24T10:22:35.676Z,4.00
2018-04-24T10:23:36.261Z,3.80
2018-04-24T11:05:10.621Z,3.40
2018-04-24T11:06:11.251Z,4.10
2018-04-24T11:07:12.141Z,3.90
2018-04-24T11:08:12.893Z,4.20
2018-04-24T11:10:54.576Z,4.20
2018-04-24T11:11:55.237Z,4.00
2018-04-24T11:12:55.856Z,4.00
2018-04-24T11:14:56.762Z,3.60
2018-04-24T11:15:57.326Z,3.80
2018-04-24T11:16:57.893Z,3.70
2018-04-24T11:17:58.626Z,3.60
2018-04-24T11:18:59.195Z,4.10
2018-04-24T11:19:59.791Z,4.30
2018-04-24T11:21:00.359Z,4.10
2018-04-24T11:23:01.228Z,4.00
2018-04-24T11:24:01.787Z,3.90
2018-04-24T11:25:02.381Z,4.00
2018-04-24T11:26:02.955Z,4.00
2018-04-24T11:27:03.542Z,4.30
2018-04-24T11:28:04.107Z,4.00
2018-04-24T11:29:04.677Z,3.80
2018-04-24T11:30:05.499Z,4.10
2018-04-24T11:31:06.156Z,4.30
2018-04-24T11:32:06.751Z,4.00
2018-04-24T11:33:07.348Z,4.00
2018-04-24T11:34:07.941Z,4.30
2018-04-24T11:35:08.608Z,4.00
2018-04-24T11:36:09.229Z,4.00
2018-04-24T11:37:09.803Z,4.30
2018-04-24T11:38:10.389Z,4.10
2018-04-24T11:40:11.223Z,4.00
2018-04-24T11:41:11.819Z,4.70
2018-04-24T11:42:12.398Z,4.40
2018-04-24T11:43:13.024Z,4.20
2018-04-24T11:44:13.625Z,4.10
2018-04-24T11:45:14.259Z,4.30
2018-04-24T11:46:14.880Z,3.50
2018-04-24T11:48:15.734Z,3.80
2018-04-24T11:50:16.593Z,3.40
2018-04-24T11:52:17.444Z,4.20
2018-04-24T11:53:18.052Z,4.00
2018-04-24T11:54:18.643Z,4.10
2018-04-24T11:55:19.229Z,4.00
2018-04-24T11:56:19.785Z,4.00
2018-04-24T11:57:20.405Z,4.00
2018-04-24T11:58:21.064Z,4.10
2018-04-24T11:59:21.662Z,4.60
2018-04-24T12:00:22.232Z,4.30
2018-04-24T12:01:22.874Z,4.30
2018-04-24T12:02:23.774Z,4.20
2018-04-24T12:03:24.359Z,4.70
2018-04-24T12:04:25.006Z,4.40
2018-04-24T12:05:25.578Z,4.30
2018-04-24T12:06:26.150Z,4.50
2018-04-24T12:07:26.743Z,4.30
2018-04-24T12:08:27.348Z,4.30
2018-04-24T12:09:27.939Z,4.10
2018-04-24T12:10:28.533Z,3.90
2018-04-24T12:11:29.188Z,4.50
2018-04-24T12:12:29.756Z,4.30
2018-04-24T12:13:30.387Z,4.60
2018-04-24T12:15:31.221Z,4.20
2018-04-24T12:16:31.821Z,3.90
2018-04-24T12:17:32.423Z,4.40
2018-04-24T12:18:33.017Z,4.40
2018-04-24T12:19:33.614Z,4.10
2018-04-24T12:20:34.198Z,4.70
2018-04-24T12:21:34.784Z,4.00
2018-04-24T12:22:35.350Z,4.30
2018-04-24T12:23:35.963Z,4.10
2018-04-24T12:24:36.565Z,4.40
2018-04-24T12:25:37.208Z,4.10
2018-04-24T12:26:37.788Z,4.00
2018-04-24T12:27:38.393Z,5.00
2018-04-24T12:28:38.988Z,4.50
2018-04-24T12:29:39.581Z,4.30
2018-04-24T12:30:40.217Z,4.10
2018-04-24T12:32:41.084Z,4.70
2018-04-24T12:33:41.698Z,4.40
2018-04-24T12:34:42.291Z,3.90
2018-04-24T12:35:42.863Z,3.80
2018-04-24T12:36:43.445Z,3.90
2018-04-24T12:37:44.031Z,4.20
2018-04-24T12:38:44.603Z,4.00
2018-04-24T12:39:45.250Z,4.10
2018-04-24T12:40:45.816Z,4.40
2018-04-24T12:41:46.404Z,4.00
2018-04-24T12:42:47.615Z,3.90
2018-04-24T12:43:48.239Z,4.10
2018-04-24T12:44:48.804Z,4.60
2018-04-24T12:45:49.391Z,4.20
2018-04-24T12:46:50.634Z,4.10
2018-04-24T12:48:51.716Z,4.30
2018-04-24T12:49:52.331Z,4.10
2018-04-24T12:51:53.214Z,4.00
2018-04-24T12:52:53.817Z,4.40
2018-04-24T12:53:54.438Z,4.50
2018-04-24T12:54:55.047Z,3.90
2018-04-24T12:55:55.649Z,4.40
2018-04-24T12:56:56.288Z,4.40
2018-04-24T12:57:56.886Z,4.30
2018-04-24T12:58:58.172Z,4.30
2018-04-24T12:59:58.726Z,4.00
2018-04-24T13:00:59.346Z,4.80
2018-04-24T13:01:59.912Z,4.30
2018-04-24T13:03:00.496Z,4.40
2018-04-24T13:04:01.096Z,4.70
2018-04-24T13:06:01.958Z,4.40
2018-04-24T13:07:02.529Z,4.50
2018-04-24T13:08:03.080Z,4.40
2018-04-24T13:09:03.675Z,4.70
2018-04-24T13:10:04.297Z,4.90
2018-04-24T13:11:04.880Z,4.60
2018-04-24T13:12:05.436Z,4.50
2018-04-24T13:13:06.018Z,5.10
2018-04-24T13:14:06.587Z,4.80
2018-04-24T13:15:07.195Z,4.60
2018-04-24T13:16:07.758Z,4.50
2018-04-24T13:17:08.375Z,4.70
2018-04-24T13:18:08.953Z,4.90
2018-04-24T13:19:09.529Z,4.90
2018-04-24T13:20:10.825Z,4.60
2018-04-24T13:21:11.433Z,4.60
2018-04-24T13:22:11.987Z,4.80
2018-04-24T13:23:12.605Z,4.80
2018-04-24T13:24:13.245Z,4.60
2018-04-24T13:25:13.815Z,4.50
2018-04-24T13:26:14.413Z,4.60
2018-04-24T13:27:15.002Z,4.80
2018-04-24T13:28:15.567Z,4.90
2018-04-24T13:29:16.150Z,4.60
2018-04-24T13:30:16.741Z,4.60
2018-04-24T13:31:17.420Z,4.50
2018-04-24T13:32:17.995Z,4.50
2018-04-24T13:33:18.590Z,4.30
2018-04-24T13:34:19.897Z,4.90
2018-04-24T13:35:20.897Z,5.20
2018-04-24T13:36:21.461Z,4.60
2018-04-24T13:37:22.014Z,4.80
2018-04-24T13:38:22.574Z,4.40
2018-04-24T13:39:23.182Z,4.70
2018-04-24T13:40:23.757Z,4.60
2018-04-24T13:41:24.327Z,4.70
2018-04-24T13:42:24.906Z,4.50
2018-04-24T13:43:25.501Z,4.40
2018-04-24T13:44:26.080Z,4.40
2018-04-24T13:45:26.663Z,4.70
2018-04-24T13:46:27.234Z,4.50
2018-04-24T13:47:27.835Z,4.40
2018-04-24T13:49:28.719Z,4.50
2018-04-24T13:50:29.282Z,4.50
2018-04-24T13:51:29.897Z,5.00
2018-04-24T13:52:30.474Z,4.40
2018-04-24T13:53:31.061Z,4.00
2018-04-24T13:54:31.637Z,4.30
2018-04-24T13:55:32.256Z,4.30
2018-04-24T13:56:32.865Z,4.50
2018-04-24T13:57:33.430Z,4.30
2018-04-24T13:58:34.044Z,4.80
2018-04-24T13:59:34.629Z,4.40
2018-04-24T14:00:35.224Z,3.90
2018-04-24T14:01:35.809Z,4.30
2018-04-24T14:02:36.394Z,4.70
2018-04-24T14:03:36.986Z,4.50
2018-04-24T14:04:37.670Z,4.90
2018-04-24T14:05:38.277Z,4.80
2018-04-24T14:06:38.900Z,5.10
2018-04-24T14:07:39.476Z,4.50
2018-04-24T14:08:40.063Z,4.70
2018-04-24T14:09:40.669Z,4.20
2018-04-24T14:10:41.268Z,4.10
2018-04-24T14:11:41.880Z,4.20
2018-04-24T14:12:42.465Z,4.50
2018-04-24T14:13:43.027Z,4.60
2018-04-24T14:14:43.637Z,5.00
2018-04-24T14:15:44.281Z,5.40
2018-04-24T14:16:44.866Z,4.20
2018-04-24T14:17:45.431Z,4.50
2018-04-24T14:18:46.020Z,4.50
2018-04-24T14:19:46.886Z,4.80
2018-04-24T14:20:47.484Z,4.50
2018-04-24T14:21:48.200Z,4.70
2018-04-24T14:22:48.787Z,4.60
2018-04-24T14:23:49.357Z,4.00
2018-04-24T14:24:50.619Z,4.20
2018-04-24T14:25:51.178Z,4.80
2018-04-24T14:26:51.752Z,4.80
2018-04-24T14:27:52.324Z,4.40
2018-04-24T14:28:52.899Z,4.50
2018-04-24T14:29:53.468Z,5.00
2018-04-24T14:30:54.043Z,5.40
2018-04-24T14:31:54.633Z,4.40
2018-04-24T14:32:55.184Z,4.70
2018-04-24T14:33:55.777Z,4.50
2018-04-24T14:34:56.352Z,4.50
2018-04-24T14:35:57.001Z,4.40
2018-04-24T14:36:57.587Z,4.70
2018-04-24T14:37:58.291Z,4.60
2018-04-24T14:38:58.866Z,4.30
2018-04-24T14:40:59.767Z,4.50
2018-04-24T14:42:00.411Z,4.40
2018-04-24T14:43:00.999Z,4.50
2018-04-24T14:44:01.570Z,4.60
2018-04-24T14:45:02.167Z,4.50
2018-04-24T14:46:02.738Z,4.40
2018-04-24T14:47:03.361Z,4.50
2018-04-24T14:48:03.983Z,4.60
2018-04-24T14:49:04.591Z,5.00
2018-04-24T14:50:05.301Z,4.30
2018-04-24T14:51:05.891Z,4.20
2018-04-24T14:52:06.543Z,4.10
2018-04-24T14:53:07.134Z,4.50
2018-04-24T14:54:07.726Z,4.10
2018-04-24T14:55:08.309Z,4.20
2018-04-24T14:56:08.916Z,4.20
2018-04-24T14:58:09.779Z,4.10
2018-04-24T14:59:10.362Z,4.00
2018-04-24T15:00:11.033Z,3.40
2018-04-24T15:01:11.600Z,3.70
2018-04-24T15:02:12.157Z,4.30
2018-04-24T15:04:12.998Z,4.10
2018-04-24T15:05:13.667Z,4.00
2018-04-24T15:06:14.260Z,4.50
2018-04-24T15:07:14.846Z,4.40
2018-04-24T15:08:26.081Z,0.00
2018-04-24T15:13:59.587Z,3.40
2018-04-24T15:30:44.254Z,4.40
2018-04-24T15:51:33.468Z,4.30
2018-04-24T15:52:34.152Z,3.90
2018-04-24T16:08:52.595Z,3.50
